createdAt,value
2023-04-12T00:01:11.333Z,10.30
2023-04-12T00:03:58.535Z,10.22
2023-04-12T00:06:48.394Z,10.19
2023-04-12T00:09:36.266Z,10.13
2023-04-12T00:12:21.038Z,10.05
2023-04-12T00:15:08.318Z,9.98
2023-04-12T00:17:53.297Z,9.96
2023-04-12T00:20:40.900Z,9.96
2023-04-12T00:23:25.944Z,9.90
2023-04-12T00:26:10.979Z,9.86
2023-04-12T00:28:58.658Z,9.80
2023-04-12T00:31:43.403Z,9.77
2023-04-12T00:34:28.612Z,9.76
2023-04-12T00:37:13.471Z,9.69
2023-04-12T00:39:58.621Z,9.68
2023-04-12T00:42:43.619Z,9.63
2023-04-12T00:45:28.785Z,9.58
2023-04-12T00:48:18.853Z,9.61
2023-04-12T00:51:05.729Z,9.59
2023-04-12T00:53:57.370Z,9.52
2023-04-12T00:56:44.794Z,9.50
2023-04-12T00:59:29.869Z,9.44
2023-04-12T01:02:14.854Z,9.46
2023-04-12T01:05:03.326Z,9.43
2023-04-12T01:08:04.944Z,9.41
2023-04-12T01:11:03.477Z,9.32
2023-04-12T01:13:53.210Z,9.26
2023-04-12T01:16:47.540Z,9.27
2023-04-12T01:19:34.078Z,9.20
2023-04-12T01:22:38.573Z,9.11
2023-04-12T01:26:00.176Z,9.08
2023-04-12T01:28:46.802Z,9.01
2023-04-12T01:31:35.051Z,8.91
2023-04-12T01:34:24.263Z,8.85
2023-04-12T01:37:09.782Z,8.95
2023-04-12T01:39:54.868Z,8.89
2023-04-12T01:42:40.567Z,8.85
2023-04-12T01:45:27.810Z,8.80
2023-04-12T01:48:13.017Z,8.78
2023-04-12T01:51:11.733Z,8.78
2023-04-12T01:54:11.584Z,8.80
2023-04-12T01:57:03.777Z,8.71
2023-04-12T01:59:50.450Z,8.69
2023-04-12T02:02:39.793Z,8.66
2023-04-12T02:05:25.345Z,8.64
2023-04-12T02:08:18.743Z,8.58
2023-04-12T02:11:11.160Z,8.50
2023-04-12T02:13:56.271Z,8.52
2023-04-12T02:16:42.235Z,8.53
2023-04-12T02:19:27.630Z,8.48
2023-04-12T02:22:12.967Z,8.36
2023-04-12T02:24:59.778Z,8.42
2023-04-12T02:27:46.106Z,8.40
2023-04-12T02:30:30.859Z,8.34
2023-04-12T02:33:15.630Z,8.31
2023-04-12T02:36:04.092Z,8.28
2023-04-12T02:38:53.344Z,8.23
2023-04-12T02:41:38.355Z,8.20
2023-04-12T02:44:23.075Z,8.22
2023-04-12T02:47:10.978Z,8.18
2023-04-12T02:49:56.325Z,8.16
2023-04-12T02:52:54.200Z,8.13
2023-04-12T02:55:40.348Z,8.08
2023-04-12T02:58:25.446Z,8.12
2023-04-12T03:01:12.945Z,8.19
2023-04-12T03:03:58.542Z,8.19
2023-04-12T03:06:53.500Z,8.26
2023-04-12T03:09:40.733Z,8.27
2023-04-12T03:12:25.740Z,8.29
2023-04-12T03:15:11.125Z,8.35
2023-04-12T03:17:56.397Z,8.31
2023-04-12T03:20:47.841Z,8.29
2023-04-12T03:23:37.137Z,8.36
2023-04-12T03:26:22.249Z,8.35
2023-04-12T03:29:11.315Z,8.35
2023-04-12T03:32:08.066Z,8.40
2023-04-12T03:34:53.252Z,8.41
2023-04-12T03:37:42.605Z,8.40
2023-04-12T03:40:27.209Z,8.38
2023-04-12T03:43:14.686Z,8.41
2023-04-12T03:45:59.554Z,8.38
2023-04-12T03:48:44.408Z,8.34
2023-04-12T03:51:30.396Z,8.27
2023-04-12T03:54:25.939Z,8.33
2023-04-12T03:57:10.742Z,8.23
2023-04-12T03:59:55.584Z,8.28
2023-04-12T04:02:40.831Z,8.26
2023-04-12T04:05:25.936Z,8.25
2023-04-12T04:08:11.166Z,8.23
2023-04-12T04:10:59.167Z,8.24
2023-04-12T04:13:46.402Z,8.22
2023-04-12T04:16:33.973Z,8.22
2023-04-12T04:19:18.954Z,8.19
2023-04-12T04:22:04.579Z,8.15
2023-04-12T04:24:53.473Z,8.09
2023-04-12T04:27:38.563Z,8.05
2023-04-12T04:30:23.664Z,8.01
2023-04-12T04:33:08.857Z,8.03
2023-04-12T04:35:56.335Z,8.01
2023-04-12T04:38:44.096Z,8.03
2023-04-12T04:41:34.307Z,7.96
2023-04-12T04:44:22.173Z,7.96
2023-04-12T04:47:10.028Z,7.94
2023-04-12T04:49:56.296Z,7.89
2023-04-12T04:52:41.325Z,7.91
2023-04-12T04:55:26.288Z,7.92
2023-04-12T04:58:14.159Z,7.87
2023-04-12T05:01:01.628Z,7.88
2023-04-12T05:03:46.506Z,7.86
2023-04-12T05:06:32.716Z,7.92
2023-04-12T05:09:24.025Z,7.94
2023-04-12T05:12:14.532Z,7.72
2023-04-12T05:17:52.194Z,7.84
2023-04-12T05:20:43.117Z,7.79
2023-04-12T05:23:30.173Z,7.75
2023-04-12T05:26:15.180Z,7.76
2023-04-12T05:29:01.459Z,7.71
2023-04-12T05:31:46.574Z,7.71
2023-04-12T05:34:31.386Z,7.74
2023-04-12T05:37:16.985Z,7.73
2023-04-12T05:40:02.179Z,7.66
2023-04-12T05:42:46.880Z,7.71
2023-04-12T05:45:34.368Z,7.76
2023-04-12T05:48:19.747Z,7.70
2023-04-12T05:51:05.190Z,7.71
2023-04-12T05:53:50.032Z,7.76
2023-04-12T05:56:35.820Z,7.76
2023-04-12T05:59:22.735Z,7.87
2023-04-12T06:02:11.236Z,7.84
2023-04-12T06:04:56.857Z,7.80
2023-04-12T06:07:50.402Z,7.92
2023-04-12T06:10:35.724Z,7.95
2023-04-12T06:13:20.834Z,8.00
2023-04-12T06:16:06.345Z,7.99
2023-04-12T06:18:51.128Z,7.97
2023-04-12T06:21:36.360Z,8.01
2023-04-12T06:24:21.291Z,8.02
2023-04-12T06:27:06.512Z,7.91
2023-04-12T06:29:51.879Z,7.99
2023-04-12T06:32:38.439Z,8.00
2023-04-12T06:35:25.458Z,7.93
2023-04-12T06:38:11.582Z,8.02
2023-04-12T06:40:56.668Z,7.95
2023-04-12T06:43:41.652Z,8.08
2023-04-12T06:46:28.152Z,8.19
2023-04-12T06:49:13.101Z,8.17
2023-04-12T06:52:00.987Z,8.29
2023-04-12T06:54:46.111Z,8.07
2023-04-12T06:57:31.128Z,8.26
2023-04-12T07:00:16.210Z,8.30
2023-04-12T07:03:01.492Z,8.30
2023-04-12T07:05:49.075Z,8.37
2023-04-12T07:08:35.601Z,8.38
2023-04-12T07:11:22.525Z,8.33
2023-04-12T07:14:08.043Z,8.41
2023-04-12T07:16:52.854Z,8.36
2023-04-12T07:19:41.927Z,8.53
2023-04-12T07:22:26.693Z,8.41
2023-04-12T07:25:11.737Z,8.52
2023-04-12T07:27:56.476Z,8.55
2023-04-12T07:30:41.601Z,8.63
2023-04-12T07:33:26.430Z,8.67
2023-04-12T07:36:11.841Z,8.52
2023-04-12T07:38:57.115Z,8.67
2023-04-12T07:41:46.093Z,8.84
2023-04-12T07:44:31.673Z,8.97
2023-04-12T07:47:16.509Z,9.06
2023-04-12T07:50:02.110Z,9.13
2023-04-12T07:52:46.826Z,8.90
2023-04-12T07:55:32.056Z,8.97
2023-04-12T07:58:17.737Z,8.96
2023-04-12T08:01:02.581Z,8.97
2023-04-12T08:03:47.674Z,8.91
2023-04-12T08:06:34.510Z,8.94
2023-04-12T08:09:22.317Z,8.92
2023-04-12T08:12:07.573Z,9.09
2023-04-12T08:14:52.682Z,9.17
2023-04-12T08:17:37.715Z,9.24
2023-04-12T08:20:22.503Z,9.29
2023-04-12T08:23:07.866Z,9.30
2023-04-12T08:25:59.249Z,9.40
2023-04-12T08:28:44.507Z,9.62
2023-04-12T08:31:29.383Z,9.75
2023-04-12T08:34:16.783Z,9.76
2023-04-12T08:37:01.654Z,9.82
2023-04-12T08:39:49.153Z,10.13
2023-04-12T08:42:36.097Z,10.10
2023-04-12T08:45:23.571Z,10.26
2023-04-12T08:48:09.736Z,10.23
2023-04-12T08:51:00.222Z,10.43
2023-04-12T08:53:45.514Z,10.37
2023-04-12T08:56:33.980Z,10.76
2023-04-12T08:59:19.886Z,11.08
2023-04-12T09:02:05.314Z,10.61
2023-04-12T09:04:50.963Z,10.69
2023-04-12T09:07:35.815Z,10.72
2023-04-12T09:10:49.886Z,10.86
2023-04-12T09:13:35.398Z,10.91
2023-04-12T09:16:42.560Z,10.74
2023-04-12T09:19:35.778Z,10.82
2023-04-12T09:22:39.778Z,10.81
2023-04-12T09:25:52.801Z,10.86
2023-04-12T09:28:44.688Z,11.13
2023-04-12T09:31:29.903Z,11.15
2023-04-12T09:34:15.270Z,10.97
2023-04-12T09:37:03.781Z,11.05
2023-04-12T09:40:06.356Z,11.09
2023-04-12T09:42:53.602Z,11.03
2023-04-12T09:45:39.289Z,11.01
2023-04-12T09:48:26.288Z,11.01
2023-04-12T09:51:13.695Z,10.94
2023-04-12T09:54:01.227Z,10.82
2023-04-12T09:56:51.329Z,10.90
2023-04-12T09:59:41.759Z,11.08
2023-04-12T10:02:28.305Z,11.24
2023-04-12T10:05:17.294Z,11.71
2023-04-12T10:08:02.780Z,12.16
2023-04-12T10:10:48.080Z,12.31
2023-04-12T10:13:33.793Z,12.26
2023-04-12T10:16:20.964Z,12.12
2023-04-12T10:19:07.350Z,12.00
2023-04-12T10:21:53.527Z,11.73
2023-04-12T10:24:41.419Z,11.64
2023-04-12T10:27:27.631Z,11.60
2023-04-12T10:30:23.204Z,11.96
2023-04-12T10:33:13.766Z,12.10
2023-04-12T10:36:02.932Z,12.11
2023-04-12T10:38:48.326Z,11.02
2023-04-12T10:41:38.072Z,10.52
2023-04-12T10:44:26.630Z,10.22
2023-04-12T10:47:15.084Z,10.15
2023-04-12T10:50:24.184Z,10.21
2023-04-12T10:53:12.672Z,10.22
2023-04-12T10:55:57.660Z,10.16
2023-04-12T10:58:58.632Z,10.04
2023-04-12T11:02:10.394Z,9.73
2023-04-12T11:05:05.231Z,9.67
2023-04-12T11:07:53.215Z,9.83
2023-04-12T11:10:39.187Z,9.77
2023-04-12T11:13:26.290Z,10.05
2023-04-12T11:16:14.058Z,10.17
2023-04-12T11:18:59.293Z,10.20
2023-04-12T11:21:44.427Z,10.52
2023-04-12T11:24:29.432Z,10.54
2023-04-12T11:27:16.246Z,10.71
2023-04-12T11:30:01.775Z,10.83
2023-04-12T11:32:47.447Z,10.94
2023-04-12T11:35:32.557Z,11.15
2023-04-12T11:38:17.982Z,11.42
2023-04-12T11:41:03.746Z,11.84
2023-04-12T11:43:48.810Z,12.02
2023-04-12T11:46:34.152Z,12.20
2023-04-12T11:49:20.741Z,11.80
2023-04-12T11:52:05.795Z,11.57
2023-04-12T11:54:51.137Z,11.80
2023-04-12T11:57:38.581Z,11.98
2023-04-12T12:00:25.427Z,12.37
2023-04-12T12:03:10.758Z,12.76
2023-04-12T12:05:56.228Z,12.56
2023-04-12T12:08:42.084Z,12.66
2023-04-12T12:11:27.302Z,12.70
2023-04-12T12:14:12.332Z,12.43
2023-04-12T12:16:58.640Z,12.84
2023-04-12T12:19:45.578Z,12.28
2023-04-12T12:22:30.530Z,12.58
2023-04-12T12:25:18.057Z,13.11
2023-04-12T12:28:05.334Z,13.12
2023-04-12T12:30:54.473Z,13.00
2023-04-12T12:33:46.426Z,13.34
2023-04-12T12:36:34.425Z,13.21
2023-04-12T12:39:19.676Z,13.35
2023-04-12T12:42:06.311Z,13.24
2023-04-12T12:44:51.141Z,13.04
2023-04-12T12:47:46.076Z,12.87
2023-04-12T12:50:33.619Z,13.19
2023-04-12T12:53:18.334Z,13.48
2023-04-12T12:56:03.546Z,13.10
2023-04-12T12:58:48.564Z,13.48
2023-04-12T13:01:33.813Z,12.72
2023-04-12T13:04:18.596Z,12.84
2023-04-12T13:07:03.553Z,12.96
2023-04-12T13:09:48.485Z,13.39
2023-04-12T13:12:33.633Z,13.31
2023-04-12T13:15:22.857Z,13.15
2023-04-12T13:18:10.416Z,12.98
2023-04-12T13:20:55.362Z,12.63
2023-04-12T13:23:40.666Z,12.50
2023-04-12T13:26:25.786Z,12.36
2023-04-12T13:29:10.882Z,12.51
2023-04-12T13:31:55.659Z,12.90
2023-04-12T13:34:40.988Z,13.13
2023-04-12T13:37:26.129Z,13.49
2023-04-12T13:40:11.458Z,13.25
2023-04-12T13:42:56.170Z,13.38
2023-04-12T13:45:41.412Z,13.43
2023-04-12T13:48:27.126Z,13.53
2023-04-12T13:51:12.231Z,13.70
2023-04-12T13:53:57.233Z,13.77
2023-04-12T13:56:42.194Z,13.68
2023-04-12T13:59:27.009Z,13.69
2023-04-12T14:02:12.138Z,12.99
2023-04-12T14:04:57.168Z,13.34
2023-04-12T14:07:42.476Z,13.47
2023-04-12T14:10:27.210Z,13.73
2023-04-12T14:13:12.685Z,13.96
2023-04-12T14:15:57.758Z,13.66
2023-04-12T14:18:42.560Z,13.40
2023-04-12T14:21:29.044Z,13.23
2023-04-12T14:24:14.945Z,13.46
2023-04-12T14:27:00.868Z,13.68
2023-04-12T14:29:45.960Z,13.59
2023-04-12T14:32:30.806Z,13.08
2023-04-12T14:35:15.787Z,13.38
2023-04-12T14:38:00.971Z,12.90
2023-04-12T14:40:45.790Z,12.87
2023-04-12T14:43:30.813Z,12.63
2023-04-12T14:46:18.451Z,12.59
2023-04-12T14:49:03.249Z,12.38
2023-04-12T14:51:47.827Z,12.30
2023-04-12T14:54:32.966Z,12.25
2023-04-12T14:57:18.080Z,12.33
2023-04-12T15:00:04.234Z,12.45
2023-04-12T15:02:49.772Z,12.30
2023-04-12T15:05:35.752Z,12.02
2023-04-12T15:08:23.019Z,11.83
2023-04-12T15:12:26.243Z,11.18
2023-04-12T15:15:11.879Z,10.50
2023-04-12T15:17:56.813Z,10.03
2023-04-12T15:20:42.452Z,9.66
2023-04-12T15:23:27.489Z,9.72
2023-04-12T15:26:14.012Z,9.47
2023-04-12T15:28:59.242Z,9.38
2023-04-12T15:31:44.803Z,9.48
2023-04-12T15:34:29.922Z,9.54
2023-04-12T15:37:14.631Z,9.70
2023-04-12T15:39:59.405Z,10.07
2023-04-12T15:42:44.314Z,10.17
2023-04-12T15:45:29.535Z,10.31
2023-04-12T15:48:14.390Z,10.52
2023-04-12T15:51:00.059Z,10.43
2023-04-12T15:53:44.872Z,10.25
2023-04-12T15:56:31.270Z,10.21
2023-04-12T15:59:18.744Z,10.28
2023-04-12T16:02:06.713Z,10.31
2023-04-12T16:04:51.944Z,10.35
2023-04-12T16:07:40.452Z,10.40
2023-04-12T16:10:25.998Z,10.11
2023-04-12T16:13:10.990Z,9.71
2023-04-12T16:15:55.914Z,9.14
2023-04-12T16:18:42.306Z,8.61
2023-04-12T16:21:28.190Z,8.45
2023-04-12T16:24:13.378Z,8.37
2023-04-12T16:26:59.140Z,8.27
2023-04-12T16:29:45.444Z,8.28
2023-04-12T16:32:30.295Z,8.21
2023-04-12T16:35:16.166Z,8.07
2023-04-12T16:38:01.905Z,8.18
2023-04-12T16:40:46.968Z,8.54
2023-04-12T16:43:31.898Z,8.71
2023-04-12T16:46:16.723Z,8.83
2023-04-12T16:49:03.653Z,8.87
2023-04-12T16:51:50.060Z,8.91
2023-04-12T16:54:34.707Z,8.77
2023-04-12T16:57:19.457Z,8.63
2023-04-12T17:00:14.118Z,8.72
2023-04-12T17:02:59.120Z,8.73
2023-04-12T17:05:43.840Z,8.69
2023-04-12T17:08:28.623Z,8.70
2023-04-12T17:11:13.762Z,8.87
2023-04-12T17:13:58.697Z,8.83
2023-04-12T17:16:43.756Z,8.76
2023-04-12T17:19:28.601Z,8.76
2023-04-12T17:22:13.630Z,8.87
2023-04-12T17:24:58.988Z,8.91
2023-04-12T17:27:43.948Z,8.86
2023-04-12T17:30:29.472Z,8.95
2023-04-12T17:33:17.808Z,8.99
2023-04-12T17:36:04.078Z,8.89
2023-04-12T17:38:49.108Z,8.89
2023-04-12T17:41:34.229Z,8.87
2023-04-12T17:44:19.051Z,8.88
2023-04-12T17:47:04.200Z,8.63
2023-04-12T17:49:49.347Z,8.55
2023-04-12T17:52:34.252Z,8.47
2023-04-12T17:55:22.942Z,8.35
2023-04-12T17:58:08.209Z,8.38
2023-04-12T18:00:53.562Z,8.35
2023-04-12T18:03:38.529Z,8.27
2023-04-12T18:06:23.679Z,8.27
2023-04-12T18:09:12.650Z,8.27
2023-04-12T18:11:58.338Z,8.23
2023-04-12T18:14:43.721Z,8.25
2023-04-12T18:17:28.540Z,8.24
2023-04-12T18:20:13.949Z,8.22
2023-04-12T18:22:59.092Z,8.19
2023-04-12T18:25:45.213Z,8.19
2023-04-12T18:28:31.634Z,8.14
2023-04-12T18:31:16.758Z,8.05
2023-04-12T18:34:01.929Z,8.01
2023-04-12T18:36:47.482Z,7.97
2023-04-12T18:39:34.071Z,8.05
2023-04-12T18:42:19.303Z,8.05
2023-04-12T18:45:05.000Z,8.08
2023-04-12T18:47:51.387Z,8.02
2023-04-12T18:50:39.111Z,7.90
2023-04-12T18:53:24.062Z,7.90
2023-04-12T18:56:13.639Z,7.84
2023-04-12T18:58:58.445Z,7.84
2023-04-12T19:01:44.478Z,7.83
2023-04-12T19:04:29.534Z,7.66
2023-04-12T19:07:15.173Z,7.75
2023-04-12T19:10:00.418Z,7.73
2023-04-12T19:12:45.633Z,7.66
2023-04-12T19:15:30.830Z,7.60
2023-04-12T19:18:15.861Z,7.58
2023-04-12T19:21:02.006Z,7.57
2023-04-12T19:23:47.083Z,7.58
2023-04-12T19:26:32.365Z,7.48
2023-04-12T19:29:18.657Z,7.40
2023-04-12T19:32:06.646Z,7.40
2023-04-12T19:34:52.022Z,7.24
2023-04-12T19:37:37.240Z,7.17
2023-04-12T19:40:22.423Z,7.13
2023-04-12T19:43:08.286Z,7.07
2023-04-12T19:45:53.594Z,7.08
2023-04-12T19:48:38.701Z,7.02
2023-04-12T19:51:23.978Z,6.93
2023-04-12T19:54:09.866Z,6.83
2023-04-12T19:56:55.120Z,6.74
2023-04-12T19:59:40.596Z,6.74
2023-04-12T20:02:25.741Z,6.70
2023-04-12T20:05:10.764Z,6.64
2023-04-12T20:07:55.799Z,6.64
2023-04-12T20:10:40.618Z,6.60
2023-04-12T20:13:25.849Z,6.54
2023-04-12T20:16:10.934Z,6.47
2023-04-12T20:18:57.581Z,6.50
2023-04-12T20:21:44.022Z,6.49
2023-04-12T20:24:34.464Z,6.52
2023-04-12T20:27:21.415Z,6.48
2023-04-12T20:30:08.780Z,6.47
2023-04-12T20:32:54.845Z,6.40
2023-04-12T20:35:40.913Z,6.44
2023-04-12T20:38:26.204Z,6.53
2023-04-12T20:41:11.247Z,6.68
2023-04-12T20:43:56.092Z,6.96
2023-04-12T20:46:41.281Z,7.19
2023-04-12T20:49:27.586Z,7.28
2023-04-12T20:52:16.762Z,7.33
2023-04-12T20:55:02.111Z,7.37
2023-04-12T20:57:47.151Z,7.43
2023-04-12T21:00:32.600Z,7.49
2023-04-12T21:03:17.596Z,7.53
2023-04-12T21:06:02.678Z,7.55
2023-04-12T21:08:48.648Z,7.77
2023-04-12T21:11:33.461Z,7.79
2023-04-12T21:14:19.214Z,7.79
2023-04-12T21:17:04.921Z,7.68
2023-04-12T21:19:50.129Z,7.56
2023-04-12T21:22:34.798Z,7.51
2023-04-12T21:25:19.708Z,7.39
2023-04-12T21:28:06.855Z,7.39
2023-04-12T21:30:58.060Z,7.34
2023-04-12T21:33:42.909Z,7.29
2023-04-12T21:36:28.705Z,7.26
2023-04-12T21:39:13.435Z,7.19
2023-04-12T21:41:58.336Z,7.19
2023-04-12T21:44:43.480Z,7.14
2023-04-12T21:47:29.016Z,7.06
2023-04-12T21:50:14.450Z,7.01
2023-04-12T21:52:59.518Z,6.91
2023-04-12T21:55:44.469Z,6.87
2023-04-12T21:58:29.944Z,6.83
2023-04-12T22:01:15.462Z,6.78
2023-04-12T22:04:00.643Z,6.74
2023-04-12T22:06:45.955Z,6.72
2023-04-12T22:09:32.100Z,6.65
2023-04-12T22:12:17.954Z,6.59
2023-04-12T22:15:04.832Z,6.59
2023-04-12T22:17:49.796Z,6.54
2023-04-12T22:20:35.136Z,6.46
2023-04-12T22:23:20.272Z,6.45
2023-04-12T22:26:07.054Z,6.44
2023-04-12T22:28:52.061Z,6.32
2023-04-12T22:31:38.376Z,6.31
2023-04-12T22:34:25.035Z,6.25
2023-04-12T22:37:11.794Z,6.25
2023-04-12T22:39:56.764Z,6.18
2023-04-12T22:42:46.007Z,6.09
2023-04-12T22:45:31.342Z,6.05
2023-04-12T22:48:16.274Z,6.03
2023-04-12T22:51:01.505Z,6.04
2023-04-12T22:53:46.237Z,5.96
2023-04-12T22:56:31.033Z,5.85
2023-04-12T22:59:19.942Z,5.83
2023-04-12T23:02:06.286Z,5.78
2023-04-12T23:04:51.492Z,5.75
2023-04-12T23:07:36.828Z,5.84
2023-04-12T23:10:22.301Z,5.88
2023-04-12T23:13:07.958Z,5.99
2023-04-12T23:15:52.655Z,6.10
2023-04-12T23:18:38.752Z,6.24
2023-04-12T23:21:23.723Z,6.33
2023-04-12T23:24:11.397Z,6.38
2023-04-12T23:26:57.771Z,6.46
2023-04-12T23:29:42.739Z,6.48
2023-04-12T23:32:27.386Z,6.52
2023-04-12T23:35:14.229Z,6.69
2023-04-12T23:38:01.421Z,6.67
2023-04-12T23:40:46.714Z,6.63
2023-04-12T23:43:33.181Z,6.74
2023-04-12T23:46:18.334Z,6.68
2023-04-12T23:49:03.108Z,6.75
2023-04-12T23:51:48.147Z,6.74
2023-04-12T23:54:32.910Z,6.89
2023-04-12T23:57:17.926Z,6.84
